Schneifelwetter: Wetterstation Hallschlag, 537 m . NN
Wetterdaten: Freitag, 27.03.2009
Datum Zeit Temp. A. Temp. 2 Feuchte A. Luftdruck Regen Wind Richtung Richtung Sonnenschein Helligkeit T Regen Taupunkt Windchill
27.03.2009 00:14 4,7 C 4,9 C 99 % 1000 hPa 0,0 l/m 38,3 km/h (5 Bft) W-SW45 245 0 min 0 lux 0,00 min 4,6 C -8,7 C
27.03.2009 00:29 4,6 C 4,8 C 99 % 999 hPa 0,0 l/m 43,5 km/h (6 Bft) W-SW45 240 0 min 0 lux 0,00 min 4,5 C -9,7 C
27.03.2009 00:44 4,5 C 4,8 C 99 % 999 hPa 0,3 l/m 42,9 km/h (6 Bft) W-SW45 250 0 min 0 lux 15,00 min 4,4 C -9,8 C
27.03.2009 00:59 4,4 C 4,7 C 99 % 999 hPa 0,0 l/m 33,0 km/h (5 Bft) W-SW45 250 0 min 0 lux 0,00 min 4,3 C -8,0 C
27.03.2009 01:14 4,4 C 4,7 C 99 % 999 hPa 0,0 l/m 30,2 km/h (5 Bft) W-SW22.5 250 0 min 0 lux 0,00 min 4,3 C -7,3 C
27.03.2009 01:29 4,3 C 4,7 C 99 % 999 hPa 0,0 l/m 48,4 km/h (6 Bft) W-SW45 250 0 min 0 lux 0,00 min 4,2 C -10,9 C
27.03.2009 01:44 4,3 C 4,6 C 99 % 999 hPa 0,0 l/m 28,7 km/h (4 Bft) W-SW22.5 250 0 min 0 lux 0,00 min 4,2 C -7,0 C
27.03.2009 01:59 4,3 C 4,7 C 99 % 999 hPa 0,0 l/m 31,0 km/h (5 Bft) W-SW45 245 0 min 0 lux 0,00 min 4,2 C -7,6 C
27.03.2009 02:14 4,3 C 4,7 C 99 % 999 hPa 0,0 l/m 27,9 km/h (4 Bft) W-SW22.5 250 0 min 0 lux 0,00 min 4,2 C -6,8 C
27.03.2009 02:29 4,3 C 4,8 C 98 % 999 hPa 0,0 l/m 36,5 km/h (5 Bft) W-SW45 240 0 min 0 lux 0,00 min 4,0 C -8,9 C
27.03.2009 02:44 4,3 C 4,8 C 98 % 999 hPa 0,3 l/m 39,3 km/h (6 Bft) W-SW22.5 255 0 min 0 lux 15,00 min 4,0 C -9,4 C
27.03.2009 02:59 4,1 C 4,5 C 98 % 999 hPa 0,0 l/m 15,6 km/h (3 Bft) W45 270 0 min 0 lux 0,00 min 3,8 C -2,3 C
27.03.2009 03:14 3,7 C 4,2 C 98 % 999 hPa 0,0 l/m 30,5 km/h (5 Bft) W22.5 265 0 min 0 lux 0,00 min 3,4 C -8,3 C
27.03.2009 03:29 3,5 C 3,8 C 98 % 999 hPa 0,0 l/m 31,8 km/h (5 Bft) W22.5 260 0 min 0 lux 0,00 min 3,2 C -9,0 C
27.03.2009 03:44 3,4 C 3,7 C 98 % 998 hPa 0,0 l/m 33,1 km/h (5 Bft) W-SW22.5 250 0 min 0 lux 0,00 min 3,1 C -9,4 C
27.03.2009 03:59 3,3 C 3,7 C 98 % 998 hPa 0,0 l/m 25,1 km/h (4 Bft) W-SW22.5 250 0 min 0 lux 0,00 min 3,0 C -7,3 C
27.03.2009 04:14 3,3 C 3,6 C 98 % 998 hPa 0,6 l/m 33,9 km/h (5 Bft) W-SW22.5 255 0 min 0 lux 15,00 min 3,0 C -9,8 C
27.03.2009 04:29 3,2 C 3,6 C 98 % 998 hPa 0,0 l/m 30,6 km/h (5 Bft) W-SW22.5 250 0 min 0 lux 0,00 min 2,9 C -9,1 C
27.03.2009 04:44 3,2 C 3,6 C 97 % 998 hPa 0,0 l/m 34,0 km/h (5 Bft) W-SW45 250 0 min 0 lux 0,00 min 2,8 C -9,9 C
27.03.2009 04:59 3,1 C 3,6 C 97 % 998 hPa 0,0 l/m 39,4 km/h (6 Bft) W-SW22.5 250 0 min 0 lux 0,00 min 2,7 C -11,2 C
27.03.2009 05:14 3,1 C 3,5 C 97 % 998 hPa 0,0 l/m 28,8 km/h (4 Bft) W-SW22.5 245 0 min 0 lux 0,00 min 2,7 C -8,7 C
27.03.2009 05:29 3,1 C 3,5 C 97 % 998 hPa 0,0 l/m 30,9 km/h (5 Bft) W-SW22.5 250 0 min 0 lux 0,00 min 2,7 C -9,3 C
27.03.2009 05:44 3,0 C 3,4 C 97 % 998 hPa 0,0 l/m 27,8 km/h (4 Bft) W-SW45 255 0 min 0 lux 0,00 min 2,6 C -8,6 C
27.03.2009 05:59 3,0 C 3,4 C 97 % 998 hPa 0,0 l/m 34,0 km/h (5 Bft) W-SW22.5 250 0 min 0 lux 0,00 min 2,6 C -10,2 C
27.03.2009 06:14 2,9 C 3,4 C 97 % 998 hPa 0,0 l/m 27,5 km/h (4 Bft) W-SW22.5 245 0 min 55 lux 0,00 min 2,5 C -8,6 C
27.03.2009 06:29 2,8 C 3,2 C 97 % 998 hPa 0,0 l/m 23,3 km/h (4 Bft) W-SW22.5 250 0 min 151 lux 0,00 min 2,4 C -7,3 C
27.03.2009 06:44 2,8 C 3,1 C 97 % 999 hPa 0,0 l/m 22,3 km/h (4 Bft) W-SW22.5 250 0 min 823 lux 0,00 min 2,4 C -6,9 C
27.03.2009 06:59 2,7 C 3,1 C 96 % 999 hPa 0,0 l/m 40,6 km/h (6 Bft) W-SW22.5 245 0 min 2,80 klux 0,00 min 2,1 C -12,0 C
27.03.2009 07:14 2,8 C 3,1 C 96 % 999 hPa 0,0 l/m 32,2 km/h (5 Bft) W-SW22.5 250 0 min 2,84 klux 0,00 min 2,2 C -10,1 C
27.03.2009 07:29 2,8 C 3,1 C 96 % 999 hPa 0,0 l/m 35,9 km/h (5 Bft) W-SW45 255 0 min 10,6 klux 0,00 min 2,2 C -10,9 C
27.03.2009 07:44 2,9 C 3,2 C 95 % 999 hPa 0,0 l/m 36,8 km/h (5 Bft) W-SW45 255 0 min 10,1 klux 0,00 min 2,2 C -11,0 C
27.03.2009 07:59 3,4 C 3,6 C 95 % 999 hPa 0,0 l/m 40,3 km/h (6 Bft) W-SW22.5 250 0 min 14,3 klux 0,00 min 2,7 C -10,9 C
27.03.2009 08:14 3,5 C 3,7 C 94 % 999 hPa 0,0 l/m 37,9 km/h (5 Bft) W-SW22.5 250 0 min 11,6 klux 0,00 min 2,6 C -10,3 C
27.03.2009 08:29 3,8 C 4,0 C 94 % 999 hPa 0,0 l/m 35,8 km/h (5 Bft) W-SW45 250 0 min 15,6 klux 0,00 min 2,9 C -9,5 C
27.03.2009 08:44 3,9 C 4,1 C 93 % 999 hPa 0,0 l/m 28,4 km/h (4 Bft) W-SW45 255 0 min 16,6 klux 0,00 min 2,9 C -7,5 C
27.03.2009 08:59 3,9 C 4,3 C 92 % 999 hPa 0,0 l/m 48,4 km/h (6 Bft) W-SW67.5 245 0 min 24,1 klux 0,00 min 2,7 C -11,5 C
27.03.2009 09:14 4,5 C 4,8 C 91 % 999 hPa 0,0 l/m 40,9 km/h (6 Bft) W-SW45 250 0 min 41,2 klux 0,00 min 3,2 C -9,4 C
27.03.2009 09:30 5,3 C 4,8 C 89 % 999 hPa 0,0 l/m 40,3 km/h (6 Bft) W-SW45 250 16 min 62,9 klux 0,00 min 3,6 C -8,1 C
27.03.2009 09:45 5,3 C 5,6 C 87 % 999 hPa 0,0 l/m 35,8 km/h (5 Bft) W-SW45 255 0 min 41,7 klux 0,00 min 3,3 C -7,3 C
27.03.2009 09:59 4,9 C 5,0 C 86 % 999 hPa 0,0 l/m 39,3 km/h (6 Bft) W-SW22.5 250 0 min 16,9 klux 0,00 min 2,8 C -8,5 C
27.03.2009 10:14 4,9 C 5,1 C 84 % 999 hPa 0,0 l/m 44,6 km/h (6 Bft) W-SW22.5 255 0 min 27,5 klux 0,00 min 2,4 C -9,4 C
27.03.2009 10:29 4,9 C 5,1 C 85 % 999 hPa 0,0 l/m 35,9 km/h (5 Bft) W-SW45 250 0 min 33,8 klux 0,00 min 2,6 C -7,9 C
27.03.2009 10:44 5,1 C 5,6 C 84 % 999 hPa 0,0 l/m 40,7 km/h (6 Bft) W-SW22.5 250 0 min 38,6 klux 0,00 min 2,6 C -8,5 C
27.03.2009 10:59 5,5 C 5,6 C 81 % 999 hPa 0,0 l/m 54,4 km/h (7 Bft) W-SW45 250 0 min 42,2 klux 0,00 min 2,5 C -9,7 C
27.03.2009 11:14 5,7 C 6,1 C 81 % 999 hPa 0,0 l/m 34,0 km/h (5 Bft) W-SW45 255 15 min 92,8 klux 0,00 min 2,7 C -6,3 C
27.03.2009 11:30 6,0 C 6,3 C 78 % 1000 hPa 0,0 l/m 46,1 km/h (6 Bft) W-SW22.5 255 0 min 43,4 klux 0,00 min 2,5 C -8,0 C
27.03.2009 11:44 6,0 C 6,3 C 78 % 1000 hPa 0,0 l/m 40,1 km/h (6 Bft) W-SW22.5 250 0 min 43,3 klux 0,00 min 2,5 C -7,1 C
27.03.2009 11:59 5,8 C 6,1 C 77 % 1000 hPa 0,0 l/m 48,6 km/h (6 Bft) W-SW22.5 245 0 min 37,4 klux 0,00 min 2,1 C -8,6 C
27.03.2009 12:14 5,8 C 6,1 C 76 % 1000 hPa 0,0 l/m 41,0 km/h (6 Bft) W-SW45 240 0 min 32,0 klux 0,00 min 1,9 C -7,5 C
27.03.2009 12:29 6,0 C 6,5 C 75 % 999 hPa 0,0 l/m 40,8 km/h (6 Bft) W-SW22.5 250 0 min 37,6 klux 0,00 min 1,9 C -7,2 C
27.03.2009 12:44 5,5 C 5,4 C 75 % 1000 hPa 0,0 l/m 46,3 km/h (6 Bft) W-SW22.5 250 0 min 25,1 klux 0,00 min 1,4 C -8,8 C
27.03.2009 12:59 6,0 C 7,5 C 78 % 999 hPa 0,0 l/m 54,0 km/h (7 Bft) W67.5 260 15 min 81,0 klux 0,00 min 2,5 C -8,9 C
27.03.2009 13:15 6,3 C 6,4 C 75 % 999 hPa 0,0 l/m 46,8 km/h (6 Bft) W-SW45 250 0 min 27,6 klux 0,00 min 2,2 C -7,6 C
27.03.2009 13:29 6,2 C 6,4 C 74 % 999 hPa 0,0 l/m 44,5 km/h (6 Bft) W-SW22.5 245 0 min 45,1 klux 0,00 min 1,9 C -7,4 C
27.03.2009 13:44 5,9 C 6,2 C 76 % 999 hPa 0,0 l/m 35,0 km/h (5 Bft) W-SW22.5 250 0 min 26,2 klux 0,00 min 2,0 C -6,2 C
27.03.2009 13:59 5,3 C 6,2 C 77 % 999 hPa 0,0 l/m 33,4 km/h (5 Bft) W22.5 260 0 min 15,1 klux 0,00 min 1,6 C -6,8 C
27.03.2009 14:14 5,2 C 5,5 C 79 % 999 hPa 0,0 l/m 39,1 km/h (6 Bft) W-SW22.5 250 0 min 22,1 klux 0,00 min 1,9 C -8,1 C
27.03.2009 14:29 4,4 C 5,4 C 81 % 999 hPa 0,0 l/m 39,1 km/h (6 Bft) W-SW45 245 0 min 19,2 klux 0,00 min 1,4 C -9,2 C
27.03.2009 14:45 4,2 C 4,2 C 84 % 999 hPa 0,0 l/m 31,1 km/h (5 Bft) W-SW22.5 245 0 min 25,1 klux 0,00 min 1,7 C -7,8 C
27.03.2009 14:59 4,0 C 4,2 C 85 % 999 hPa 0,0 l/m 25,6 km/h (4 Bft) W-SW22.5 255 0 min 22,0 klux 0,00 min 1,7 C -6,5 C
27.03.2009 15:14 4,4 C 4,6 C 85 % 999 hPa 0,0 l/m 21,6 km/h (4 Bft) W-SW22.5 250 15 min 49,0 klux 0,00 min 2,1 C -4,6 C
27.03.2009 15:29 4,7 C 5,2 C 84 % 999 hPa 0,0 l/m 27,0 km/h (4 Bft) W-SW22.5 250 0 min 26,8 klux 0,00 min 2,2 C -6,0 C
27.03.2009 15:44 4,2 C 4,5 C 79 % 999 hPa 0,0 l/m 47,2 km/h (6 Bft) W-SW22.5 255 0 min 25,3 klux 0,00 min 0,9 C -10,9 C
27.03.2009 15:59 4,2 C 4,5 C 80 % 999 hPa 0,0 l/m 32,9 km/h (5 Bft) W-SW22.5 250 0 min 19,2 klux 0,00 min 1,1 C -8,2 C
27.03.2009 16:15 3,9 C 4,5 C 80 % 999 hPa 0,0 l/m 40,1 km/h (6 Bft) W-SW22.5 250 0 min 15,9 klux 0,00 min 0,8 C -10,2 C
27.03.2009 16:29 4,0 C 4,5 C 81 % 999 hPa 0,0 l/m 27,5 km/h (4 Bft) W-SW22.5 250 0 min 18,6 klux 0,00 min 1,0 C -7,1 C
27.03.2009 16:44 3,9 C 4,5 C 81 % 999 hPa 0,0 l/m 31,3 km/h (5 Bft) W-SW45 250 0 min 11,2 klux 0,00 min 0,9 C -8,3 C
27.03.2009 16:59 3,7 C 4,5 C 81 % 999 hPa 0,0 l/m 38,2 km/h (5 Bft) W-SW22.5 250 0 min 12,3 klux 0,00 min 0,7 C -10,1 C
27.03.2009 17:14 3,7 C 4,5 C 82 % 999 hPa 0,0 l/m 31,5 km/h (5 Bft) W-SW22.5 250 0 min 12,3 klux 0,00 min 0,9 C -8,6 C
27.03.2009 17:29 3,7 C 4,5 C 82 % 999 hPa 0,0 l/m 37,0 km/h (5 Bft) W-SW22.5 250 0 min 12,9 klux 0,00 min 0,9 C -9,9 C
27.03.2009 17:45 3,4 C 4,5 C 82 % 999 hPa 0,0 l/m 26,3 km/h (4 Bft) W-SW22.5 250 0 min 12,4 klux 0,00 min 0,6 C -7,5 C
27.03.2009 17:44 3,4 C 4,5 C 82 % 999 hPa 0,0 l/m 26,3 km/h (4 Bft) W-SW22.5 250 0 min 12,4 klux 0,00 min 0,6 C -7,5 C
27.03.2009 17:59 3,1 C 4,5 C 83 % 998 hPa 0,0 l/m 23,1 km/h (4 Bft) W-SW22.5 240 0 min 7,84 klux 0,00 min 0,5 C -6,8 C
27.03.2009 18:14 2,9 C 4,5 C 84 % 998 hPa 0,0 l/m 20,9 km/h (4 Bft) SW45 230 0 min 2,45 klux 0,00 min 0,5 C -6,3 C
27.03.2009 18:29 2,8 C 4,5 C 86 % 999 hPa 0,0 l/m 22,3 km/h (4 Bft) SW45 230 0 min 2,12 klux 0,00 min 0,7 C -6,9 C
27.03.2009 18:45 2,6 C 4,5 C 87 % 998 hPa 0,0 l/m 24,2 km/h (4 Bft) SW45 225 0 min 1,72 klux 0,00 min 0,7 C -7,9 C
27.03.2009 18:59 2,6 C 4,5 C 89 % 998 hPa 0,0 l/m 25,1 km/h (4 Bft) W-SW22.5 245 0 min 522 lux 0,00 min 1,0 C -8,2 C
27.03.2009 19:14 2,5 C 4,5 C 90 % 999 hPa 0,0 l/m 22,1 km/h (4 Bft) SW45 230 0 min 171 lux 0,00 min 1,0 C -7,3 C
27.03.2009 19:29 2,3 C 4,5 C 90 % 998 hPa 0,0 l/m 21,1 km/h (4 Bft) SW45 220 0 min 33 lux 0,00 min 0,8 C -7,1 C
27.03.2009 19:44 2,4 C 4,5 C 92 % 998 hPa 0,0 l/m 27,5 km/h (4 Bft) S-SW45 210 0 min 0 lux 0,00 min 1,2 C -9,3 C
27.03.2009 19:59 2,7 C 4,5 C 92 % 999 hPa 0,0 l/m 37,7 km/h (5 Bft) SW45 230 0 min 0 lux 0,00 min 1,5 C -11,5 C
27.03.2009 20:14 2,7 C 4,5 C 92 % 999 hPa 0,0 l/m 24,6 km/h (4 Bft) W-SW45 240 0 min 0 lux 0,00 min 1,5 C -7,9 C
27.03.2009 20:30 2,3 C 4,5 C 93 % 999 hPa 0,0 l/m 23,0 km/h (4 Bft) SW22.5 225 0 min 0 lux 0,00 min 1,3 C -7,9 C
27.03.2009 20:44 2,3 C 2,5 C 94 % 999 hPa 0,0 l/m 24,1 km/h (4 Bft) SW22.5 225 0 min 0 lux 0,00 min 1,4 C -8,3 C
27.03.2009 20:59 2,6 C 2,5 C 94 % 999 hPa 0,0 l/m 26,5 km/h (4 Bft) SW22.5 225 0 min 0 lux 0,00 min 1,7 C -8,7 C
27.03.2009 21:14 2,6 C 2,5 C 93 % 998 hPa 0,0 l/m 24,0 km/h (4 Bft) SW45 220 0 min 0 lux 0,00 min 1,6 C -7,8 C
27.03.2009 21:29 2,7 C 2,5 C 93 % 999 hPa 0,0 l/m 26,1 km/h (4 Bft) SW45 230 0 min 0 lux 0,00 min 1,7 C -8,4 C
27.03.2009 21:44 2,7 C 2,5 C 93 % 998 hPa 0,0 l/m 30,6 km/h (5 Bft) SW45 225 0 min 0 lux 0,00 min 1,7 C -9,8 C
27.03.2009 21:59 2,7 C 2,5 C 94 % 998 hPa 0,0 l/m 24,1 km/h (4 Bft) SW45 225 0 min 0 lux 0,00 min 1,8 C -7,7 C
27.03.2009 22:15 2,6 C 2,5 C 94 % 998 hPa 0,0 l/m 26,3 km/h (4 Bft) SW22.5 220 0 min 0 lux 0,00 min 1,7 C -8,6 C
27.03.2009 22:29 2,6 C 2,6 C 94 % 998 hPa 0,0 l/m 21,4 km/h (4 Bft) S-SW22.5 210 0 min 0 lux 0,00 min 1,7 C -6,9 C
27.03.2009 22:44 2,3 C 2,6 C 94 % 998 hPa 0,0 l/m 25,4 km/h (4 Bft) S-SW22.5 210 0 min 0 lux 0,00 min 1,4 C -8,7 C
27.03.2009 22:59 2,2 C 2,6 C 94 % 998 hPa 0,0 l/m 22,2 km/h (4 Bft) SW45 220 0 min 0 lux 0,00 min 1,3 C -7,7 C
27.03.2009 23:14 2,2 C 2,6 C 94 % 998 hPa 0,0 l/m 23,7 km/h (4 Bft) SW45 225 0 min 0 lux 0,00 min 1,3 C -8,3 C
27.03.2009 23:29 2,3 C 2,6 C 94 % 998 hPa 0,0 l/m 19,5 km/h (3 Bft) SW45 215 0 min 0 lux 0,00 min 1,4 C -6,4 C
27.03.2009 23:45 2,3 C 2,3 C 94 % 997 hPa 0,0 l/m 18,1 km/h (3 Bft) SW22.5 220 0 min 0 lux 0,00 min 1,4 C -5,8 C
27.03.2009 23:59 2,4 C 2,3 C 94 % 997 hPa 0,0 l/m 22,3 km/h (4 Bft) SW45 215 0 min 0 lux 0,00 min 1,5 C -7,5 C
_ Min-Zeit 22:59 23:45 13:29 23:45 - 02:59 - - - - - 18:14 06:59
Minimum _ 2,2 C 2,3 C 74 % 997 hPa - 15,6 km/h (3 Bft) - - - - - 0,5 C -12,0 C
_ Max-Zeit 13:15 12:59 00:14 00:14 04:14 10:59 - - 09:30 11:14 00:44 00:14 02:59
Maximum _ 6,3 C 7,5 C 99 % 1000 hPa 0,6 l/m 54,4 km/h
W-SW (7 Bft)
- - 16 min 92,8 klux 15,00 min 4,6 C -2,3 C
Durchschnitt _ 3,8 C 4,3 C 90 % 999 hPa #1,2 l/m 32,7 km/h (5 Bft) W-SW - #1:01 h 12,9 klux #45 min. 2,2 C -8,4 C